createdAt,value
2018-05-14T00:01:30.842Z,74289.92
2018-05-14T00:04:01.247Z,74298.02
2018-05-14T00:06:31.396Z,74326.35
2018-05-14T00:09:01.451Z,74291.95
2018-05-14T00:11:31.581Z,74249.45
2018-05-14T00:14:01.316Z,74267.66
2018-05-14T00:16:30.941Z,74288.91
2018-05-14T00:19:00.416Z,74206.95
2018-05-14T00:21:29.832Z,74231.23
2018-05-14T00:23:59.446Z,74226.18
2018-05-14T00:26:29.366Z,74281.83
2018-05-14T00:28:58.918Z,74213.02
2018-05-14T00:31:28.627Z,74270.70
2018-05-14T00:33:58.667Z,74250.46
2018-05-14T00:36:28.145Z,74282.84
2018-05-14T00:38:57.814Z,74292.95
2018-05-14T00:41:27.605Z,74262.60
2018-05-14T00:43:57.044Z,74288.91
2018-05-14T00:46:26.480Z,74310.16
2018-05-14T00:48:56.323Z,74286.89
2018-05-14T00:51:25.707Z,74293.97
2018-05-14T00:53:55.107Z,74294.98
2018-05-14T00:56:24.629Z,74282.84
2018-05-14T00:58:54.209Z,74243.38
2018-05-14T01:01:26.235Z,74243.38
2018-05-14T01:03:55.823Z,74262.60
2018-05-14T01:06:25.451Z,74246.41
2018-05-14T01:08:54.976Z,74218.09
2018-05-14T01:11:27.124Z,74234.27
2018-05-14T01:13:56.491Z,74254.51
2018-05-14T01:16:26.636Z,74292.95
2018-05-14T01:18:56.594Z,74279.80
2018-05-14T01:21:26.299Z,74297.01
2018-05-14T01:23:56.293Z,74282.84
2018-05-14T01:26:26.007Z,74285.88
2018-05-14T01:28:55.447Z,74296.00
2018-05-14T01:31:25.474Z,74292.95
2018-05-14T01:33:55.039Z,74287.90
2018-05-14T01:36:24.448Z,74333.44
2018-05-14T01:38:53.852Z,74319.27
2018-05-14T01:41:23.346Z,74306.11
2018-05-14T01:43:52.883Z,74281.83
2018-05-14T01:46:22.895Z,74310.16
2018-05-14T01:48:52.377Z,74347.59
2018-05-14T01:51:21.967Z,74344.56
2018-05-14T01:53:52.047Z,74338.49
2018-05-14T01:56:21.627Z,74314.20
2018-05-14T01:58:51.150Z,74344.56
2018-05-14T02:01:23.777Z,74369.86
2018-05-14T02:03:55.257Z,74366.83
2018-05-14T02:06:25.229Z,74376.94
2018-05-14T02:08:54.799Z,74387.06
2018-05-14T02:11:24.300Z,74404.27
2018-05-14T02:13:54.298Z,74418.42
2018-05-14T02:16:23.931Z,74392.13
2018-05-14T02:18:53.659Z,74368.84
2018-05-14T02:21:23.531Z,74354.69
2018-05-14T02:23:53.072Z,74338.49
2018-05-14T02:26:22.613Z,74309.15
2018-05-14T02:28:52.455Z,74341.53
2018-05-14T02:31:22.215Z,74359.73
2018-05-14T02:33:51.695Z,74374.92
2018-05-14T02:36:21.897Z,74410.34
2018-05-14T02:38:51.534Z,74441.70
2018-05-14T02:41:20.877Z,74459.92
2018-05-14T02:43:50.959Z,74486.22
2018-05-14T02:46:20.427Z,74489.27
2018-05-14T02:48:50.313Z,74511.52
2018-05-14T02:51:20.358Z,74520.63
2018-05-14T02:53:50.119Z,74467.00
2018-05-14T02:56:19.644Z,74467.00
2018-05-14T02:58:49.486Z,74447.77
2018-05-14T03:01:19.110Z,74439.68
2018-05-14T03:03:48.679Z,74471.05
2018-05-14T03:06:18.623Z,74519.62
2018-05-14T03:08:48.197Z,74546.94
2018-05-14T03:11:17.732Z,74473.07
2018-05-14T03:13:47.722Z,74528.73
2018-05-14T03:16:17.170Z,74477.12
2018-05-14T03:18:47.150Z,74549.98
2018-05-14T03:21:17.128Z,74502.41
2018-05-14T03:23:46.504Z,74471.05
2018-05-14T03:26:15.945Z,74506.47
2018-05-14T03:28:45.974Z,74557.06
2018-05-14T03:31:15.399Z,74557.06
2018-05-14T03:33:44.884Z,74550.98
2018-05-14T03:36:14.427Z,74532.77
2018-05-14T03:38:43.943Z,74558.07
2018-05-14T03:41:13.845Z,74572.23
2018-05-14T03:43:43.496Z,74618.78
2018-05-14T03:46:13.117Z,74546.94
2018-05-14T03:48:43.334Z,74572.23
2018-05-14T03:51:12.843Z,74652.18
2018-05-14T03:53:42.416Z,74667.36
2018-05-14T03:56:12.160Z,74662.30
2018-05-14T04:01:20.691Z,74672.42
2018-05-14T04:06:05.372Z,74680.52
2018-05-14T04:08:34.819Z,74622.84
2018-05-14T04:11:04.405Z,74590.45
2018-05-14T04:13:33.926Z,74599.56
2018-05-14T04:16:03.310Z,74540.87
2018-05-14T04:18:33.466Z,74559.08
2018-05-14T04:21:03.222Z,74526.70
2018-05-14T04:23:32.915Z,74522.66
2018-05-14T04:26:02.615Z,74481.16
2018-05-14T04:28:32.192Z,74517.59
2018-05-14T04:31:01.816Z,74533.78
2018-05-14T04:33:31.335Z,74523.66
2018-05-14T04:36:00.574Z,74525.69
2018-05-14T04:38:30.506Z,74523.66
2018-05-14T04:40:59.931Z,74530.75
2018-05-14T04:43:29.573Z,74507.48
2018-05-14T04:45:59.275Z,74514.56
2018-05-14T04:48:28.820Z,74454.86
2018-05-14T04:50:58.278Z,74487.23
2018-05-14T04:53:28.203Z,74494.32
2018-05-14T04:55:57.696Z,74491.28
2018-05-14T04:58:27.259Z,74473.07
2018-05-14T05:00:57.605Z,74448.78
2018-05-14T05:03:27.049Z,74453.84
2018-05-14T05:05:56.440Z,74471.05
2018-05-14T05:08:26.340Z,74439.68
2018-05-14T05:10:56.880Z,74452.83
2018-05-14T05:13:26.426Z,74446.77
2018-05-14T05:15:56.232Z,74416.41
2018-05-14T05:18:25.497Z,74384.03
2018-05-14T05:20:54.855Z,74402.23
2018-05-14T05:23:24.640Z,74372.89
2018-05-14T05:25:53.907Z,74327.36
2018-05-14T05:28:23.181Z,74366.83
2018-05-14T05:30:52.941Z,74306.11
2018-05-14T05:33:22.173Z,74263.61
2018-05-14T05:35:51.443Z,74348.61
2018-05-14T05:38:21.344Z,74372.89
2018-05-14T05:40:50.983Z,74306.11
2018-05-14T05:43:20.443Z,74255.52
2018-05-14T05:45:50.306Z,74328.38
2018-05-14T05:48:19.995Z,74332.42
2018-05-14T05:50:49.815Z,74333.44
2018-05-14T05:53:19.321Z,74347.59
2018-05-14T05:55:48.604Z,74281.83
2018-05-14T05:58:18.210Z,74286.89
2018-05-14T06:00:48.294Z,74316.23
2018-05-14T06:03:17.686Z,74301.05
2018-05-14T06:05:47.224Z,74316.23
2018-05-14T06:08:17.059Z,74321.29
2018-05-14T06:10:46.871Z,74332.42
2018-05-14T06:13:16.265Z,74232.25
2018-05-14T06:15:45.962Z,74170.53
2018-05-14T06:18:15.213Z,74244.39
2018-05-14T06:20:44.440Z,74218.09
2018-05-14T06:23:14.143Z,74207.97
2018-05-14T06:25:43.704Z,74239.33
2018-05-14T06:28:13.166Z,74234.27
2018-05-14T06:30:43.198Z,74264.63
2018-05-14T06:33:12.523Z,74271.71
2018-05-14T06:35:41.944Z,74239.33
2018-05-14T06:38:11.939Z,74249.45
2018-05-14T06:40:41.504Z,74184.70
2018-05-14T06:43:11.213Z,74096.67
2018-05-14T06:45:41.247Z,74027.87
2018-05-14T06:48:10.609Z,74162.44
2018-05-14T06:50:39.999Z,74177.61
2018-05-14T06:53:09.876Z,74183.69
2018-05-14T06:55:39.587Z,74160.41
2018-05-14T06:58:09.038Z,74161.42
2018-05-14T07:00:38.802Z,74146.25
2018-05-14T07:03:08.297Z,74069.35
2018-05-14T07:05:37.709Z,73920.63
2018-05-14T07:08:07.251Z,73990.44
2018-05-14T07:10:37.132Z,73911.52
2018-05-14T07:13:06.596Z,73807.31
2018-05-14T07:15:36.721Z,73929.73
2018-05-14T07:18:06.305Z,74020.78
2018-05-14T07:20:35.734Z,74011.68
2018-05-14T07:23:05.237Z,74012.69
2018-05-14T07:25:34.939Z,73920.63
2018-05-14T07:28:04.201Z,73983.35
2018-05-14T07:30:34.166Z,73848.80
2018-05-14T07:33:03.687Z,73801.24
2018-05-14T07:35:33.166Z,73764.83
2018-05-14T07:38:02.755Z,73735.48
2018-05-14T07:40:32.032Z,73598.91
2018-05-14T07:43:01.823Z,73654.55
2018-05-14T07:45:31.326Z,73760.77
2018-05-14T07:48:00.909Z,73699.06
2018-05-14T07:50:30.129Z,73589.80
2018-05-14T07:52:59.625Z,73511.91
2018-05-14T07:55:29.321Z,73476.50
2018-05-14T07:57:58.730Z,73437.05
2018-05-14T08:00:28.705Z,73521.02
2018-05-14T08:02:58.161Z,73577.66
2018-05-14T08:05:27.898Z,73448.18
2018-05-14T08:07:57.691Z,73557.44
2018-05-14T08:10:27.291Z,73460.32
2018-05-14T08:12:56.992Z,73439.08
2018-05-14T08:15:26.857Z,73488.64
2018-05-14T08:17:56.143Z,73583.73
2018-05-14T08:20:25.518Z,73499.77
2018-05-14T08:22:55.227Z,73652.53
2018-05-14T08:25:24.974Z,73514.95
2018-05-14T08:27:54.598Z,73521.02
2018-05-14T08:30:24.167Z,73443.13
2018-05-14T08:32:53.900Z,73295.44
2018-05-14T08:35:23.378Z,73268.13
2018-05-14T08:37:52.907Z,73216.53
2018-05-14T08:40:22.389Z,73367.26
2018-05-14T08:42:51.682Z,73348.03
2018-05-14T08:45:21.984Z,73306.56
2018-05-14T08:47:51.521Z,73206.42
2018-05-14T08:50:21.408Z,73290.38
2018-05-14T08:52:51.228Z,73176.08
2018-05-14T08:55:20.780Z,73377.38
2018-05-14T08:57:50.231Z,73305.55
2018-05-14T09:00:20.066Z,73341.97
2018-05-14T09:02:49.661Z,73308.59
2018-05-14T09:05:18.922Z,73264.08
2018-05-14T09:07:48.839Z,73216.53
2018-05-14T09:10:18.474Z,73111.34
2018-05-14T09:12:48.095Z,73227.66
2018-05-14T09:15:18.167Z,73176.08
2018-05-14T09:17:47.797Z,73145.73
2018-05-14T09:20:17.298Z,73136.63
2018-05-14T09:22:47.010Z,73364.22
2018-05-14T09:25:16.238Z,73287.34
2018-05-14T09:27:45.547Z,73214.52
2018-05-14T09:30:15.538Z,73258.01
2018-05-14T09:32:45.024Z,73160.91
2018-05-14T09:35:14.261Z,73188.22
2018-05-14T09:37:44.091Z,73091.11
2018-05-14T09:40:13.746Z,73054.70
2018-05-14T09:42:43.279Z,73176.08
2018-05-14T09:45:13.277Z,73089.09
2018-05-14T09:47:42.798Z,73120.44
2018-05-14T09:50:12.303Z,73104.27
2018-05-14T09:52:42.102Z,73058.74
2018-05-14T09:55:11.360Z,73171.02
2018-05-14T09:57:40.754Z,73077.96
2018-05-14T10:00:10.437Z,73121.45
2018-05-14T10:02:39.886Z,73058.74
2018-05-14T10:05:09.432Z,73134.61
2018-05-14T10:07:39.286Z,73032.45
2018-05-14T10:10:08.518Z,72971.76
2018-05-14T10:12:38.059Z,72983.89
2018-05-14T10:15:07.435Z,73066.84
2018-05-14T10:17:37.026Z,73091.11
2018-05-14T10:20:06.651Z,72997.05
2018-05-14T10:22:35.889Z,72967.71
2018-05-14T10:25:05.155Z,72961.64
2018-05-14T10:27:34.887Z,73014.23
2018-05-14T10:30:04.556Z,72957.59
2018-05-14T10:32:34.079Z,72984.91
2018-05-14T10:35:04.095Z,72969.73
2018-05-14T10:37:33.855Z,72970.75
2018-05-14T10:40:03.319Z,72894.89
2018-05-14T10:42:32.659Z,72873.65
2018-05-14T10:45:02.150Z,72846.34
2018-05-14T10:47:31.954Z,72891.86
2018-05-14T10:50:01.680Z,72898.94
2018-05-14T10:52:30.966Z,72957.59
2018-05-14T10:55:00.534Z,72944.45
2018-05-14T10:57:29.983Z,72976.81
2018-05-14T10:59:59.459Z,72937.37
2018-05-14T11:02:28.854Z,72875.67
2018-05-14T11:04:58.544Z,72915.12
2018-05-14T11:07:28.204Z,72921.19
2018-05-14T11:09:57.700Z,72880.73
2018-05-14T11:12:27.125Z,72921.19
2018-05-14T11:14:56.764Z,72958.61
2018-05-14T11:17:26.293Z,72892.87
2018-05-14T11:19:56.103Z,72886.80
2018-05-14T11:22:26.856Z,72863.53
2018-05-14T11:24:56.224Z,72835.22
2018-05-14T11:27:25.879Z,72781.61
2018-05-14T11:29:55.987Z,72780.59
2018-05-14T11:32:25.215Z,72781.61
2018-05-14T11:34:54.464Z,72824.09
2018-05-14T11:37:24.236Z,72825.10
2018-05-14T11:39:53.711Z,72856.45
2018-05-14T11:53:05.820Z,72825.10
2018-05-14T11:55:37.158Z,72806.90
2018-05-14T11:58:06.954Z,72870.61
2018-05-14T12:10:42.819Z,72856.45
2018-05-14T12:13:13.944Z,72927.25
2018-05-14T12:15:45.336Z,72911.08
2018-05-14T12:18:16.665Z,72902.98
2018-05-14T12:20:47.800Z,72806.90
2018-05-14T12:23:19.301Z,72895.90
2018-05-14T12:25:52.220Z,72921.19
2018-05-14T12:28:23.243Z,72902.98
2018-05-14T12:30:54.641Z,72836.23
2018-05-14T12:33:25.828Z,72909.05
2018-05-14T12:35:56.958Z,72782.63
2018-05-14T12:38:28.563Z,72772.51
2018-05-14T12:40:59.535Z,72783.63
2018-05-14T12:43:30.639Z,72859.48
2018-05-14T12:46:02.101Z,72897.92
2018-05-14T12:48:33.086Z,73083.02
2018-05-14T12:51:04.137Z,73003.11
2018-05-14T12:53:35.486Z,72901.97
2018-05-14T12:56:06.532Z,72970.75
2018-05-14T12:58:37.885Z,72908.03
2018-05-14T13:01:08.867Z,72837.23
2018-05-14T13:03:39.896Z,72840.27
2018-05-14T13:06:11.252Z,72847.35
2018-05-14T13:08:42.309Z,72858.48
2018-05-14T13:11:13.340Z,72861.52
2018-05-14T13:13:44.737Z,72816.00
2018-05-14T13:16:16.316Z,72788.69
2018-05-14T13:18:47.652Z,72808.92
2018-05-14T13:21:18.997Z,72944.45
2018-05-14T13:23:50.331Z,72825.10
2018-05-14T13:26:22.393Z,72831.17
2018-05-14T13:28:53.584Z,72807.91
2018-05-14T13:31:24.586Z,72839.27
2018-05-14T13:33:56.102Z,72855.45
2018-05-14T13:36:27.080Z,72869.60
2018-05-14T13:38:58.079Z,72941.41
2018-05-14T13:41:29.350Z,72884.77
2018-05-14T13:44:00.389Z,72862.52
2018-05-14T13:46:31.803Z,72927.25
2018-05-14T13:49:02.802Z,72982.88
2018-05-14T13:51:34.028Z,72881.73
2018-05-14T13:54:05.352Z,72914.11
2018-05-14T13:56:36.399Z,72844.32
2018-05-14T13:59:07.800Z,72891.86
2018-05-14T14:01:38.844Z,72903.99
2018-05-14T14:04:10.007Z,72907.02
2018-05-14T14:06:41.281Z,72928.27
2018-05-14T14:09:13.183Z,73015.25
2018-05-14T14:11:44.664Z,73018.28
2018-05-14T14:14:15.962Z,72954.56
2018-05-14T14:16:47.098Z,72986.93
2018-05-14T14:19:18.584Z,72977.83
2018-05-14T14:21:49.815Z,73092.13
2018-05-14T14:24:21.074Z,72964.67
2018-05-14T14:26:52.574Z,72987.94
2018-05-14T14:29:23.602Z,72979.85
2018-05-14T14:31:54.925Z,72995.02
2018-05-14T14:34:26.627Z,73068.86
2018-05-14T14:36:57.568Z,73009.19
2018-05-14T14:39:29.897Z,73003.11
2018-05-14T14:42:00.972Z,73121.45
2018-05-14T14:44:32.598Z,73036.48
2018-05-14T14:47:03.900Z,72994.01
2018-05-14T14:49:35.677Z,73069.87
2018-05-14T14:52:07.165Z,73111.34
2018-05-14T14:54:38.424Z,73126.52
2018-05-14T14:57:09.429Z,73107.30
2018-05-14T14:59:40.406Z,73054.70
2018-05-14T15:02:11.899Z,73178.09
2018-05-14T15:04:42.800Z,73129.55
2018-05-14T15:07:15.181Z,73122.47
2018-05-14T15:09:48.963Z,73222.61
2018-05-14T15:12:19.991Z,73211.48
2018-05-14T15:14:51.524Z,73195.30
2018-05-14T15:17:22.529Z,73218.56
2018-05-14T15:19:53.480Z,73185.18
2018-05-14T15:22:24.876Z,73212.49
2018-05-14T15:24:56.437Z,73213.50
2018-05-14T15:27:27.827Z,73231.71
2018-05-14T15:29:59.140Z,73191.25
2018-05-14T15:32:30.205Z,73208.44
2018-05-14T15:35:01.244Z,73186.19
2018-05-14T15:37:33.028Z,73162.92
2018-05-14T15:40:04.079Z,73138.65
2018-05-14T15:42:35.126Z,73125.50
2018-05-14T15:45:06.553Z,73196.30
2018-05-14T15:47:37.680Z,73199.34
2018-05-14T15:50:08.657Z,73204.40
2018-05-14T15:52:39.968Z,73264.08
2018-05-14T15:55:11.213Z,73248.91
2018-05-14T15:57:42.333Z,73208.44
2018-05-14T16:00:13.663Z,73210.47
2018-05-14T16:02:44.636Z,73190.23
2018-05-14T16:05:15.916Z,73216.53
2018-05-14T16:07:46.888Z,73181.13
2018-05-14T16:10:17.856Z,73194.28
2018-05-14T16:12:49.093Z,73244.86
2018-05-14T16:15:20.102Z,73279.25
2018-05-14T16:17:51.512Z,73227.66
2018-05-14T16:20:22.876Z,73288.36
2018-05-14T16:22:54.303Z,73267.11
2018-05-14T16:25:25.348Z,73241.83
2018-05-14T16:27:56.772Z,73202.38
2018-05-14T16:30:27.807Z,73216.53
2018-05-14T16:33:03.343Z,73208.44
2018-05-14T16:35:34.723Z,73230.70
2018-05-14T16:38:05.761Z,73203.39
2018-05-14T16:40:37.132Z,73201.36
2018-05-14T16:43:08.178Z,73224.63
2018-05-14T16:45:39.511Z,73307.58
2018-05-14T16:48:10.621Z,73249.92
2018-05-14T16:50:41.663Z,73277.23
2018-05-14T16:53:12.897Z,73305.55
2018-05-14T16:55:43.896Z,73309.59
2018-05-14T16:58:14.816Z,73306.56
2018-05-14T17:00:46.222Z,73315.66
2018-05-14T17:03:17.271Z,73356.13
2018-05-14T17:05:48.224Z,73360.17
2018-05-14T17:08:19.553Z,73319.71
2018-05-14T17:10:50.514Z,73326.80
2018-05-14T17:13:21.693Z,73319.71
2018-05-14T17:15:53.516Z,73304.54
2018-05-14T17:18:25.237Z,73392.55
2018-05-14T17:20:56.892Z,73368.27
2018-05-14T17:23:28.412Z,73359.16
2018-05-14T17:26:00.025Z,73385.47
2018-05-14T17:28:31.029Z,73412.77
2018-05-14T17:31:02.041Z,73408.73
2018-05-14T17:33:33.427Z,73439.08
2018-05-14T17:36:05.761Z,73449.19
2018-05-14T17:38:38.584Z,73437.05
2018-05-14T17:41:09.681Z,73484.59
2018-05-14T17:43:41.905Z,73464.37
2018-05-14T17:46:13.576Z,73513.94
2018-05-14T17:48:45.402Z,73472.46
2018-05-14T17:51:17.149Z,73480.55
2018-05-14T17:53:48.271Z,73492.69
2018-05-14T17:56:19.387Z,73486.63
2018-05-14T17:58:51.635Z,73520.00
2018-05-14T18:01:22.742Z,73487.63
2018-05-14T18:03:53.719Z,73543.27
2018-05-14T18:06:25.111Z,73515.95
2018-05-14T18:08:56.168Z,73580.70
2018-05-14T18:11:27.516Z,73578.68
2018-05-14T18:13:58.496Z,73676.81
2018-05-14T18:16:29.966Z,73665.68
2018-05-14T18:19:01.072Z,73653.54
2018-05-14T18:21:35.899Z,73613.08
2018-05-14T18:24:07.252Z,73632.30
2018-05-14T18:26:43.457Z,73659.61
2018-05-14T18:29:17.428Z,73651.52
2018-05-14T18:31:52.224Z,73635.33
2018-05-14T18:34:27.374Z,73663.66
2018-05-14T18:36:58.404Z,73677.82
2018-05-14T18:39:29.487Z,73694.01
2018-05-14T18:42:00.816Z,73762.80
2018-05-14T18:44:34.807Z,73745.60
2018-05-14T18:47:06.471Z,73806.30
2018-05-14T18:49:37.773Z,73801.24
2018-05-14T18:52:08.885Z,73782.02
2018-05-14T18:54:40.111Z,73901.41
2018-05-14T18:57:11.396Z,73909.50
2018-05-14T18:59:42.470Z,73923.66
2018-05-14T19:02:13.930Z,73950.98
2018-05-14T19:04:45.992Z,73987.40
2018-05-14T19:07:17.452Z,73950.98
2018-05-14T19:09:49.279Z,73984.36
2018-05-14T19:12:21.052Z,73985.38
2018-05-14T19:14:55.927Z,74023.83
2018-05-14T19:18:03.451Z,74073.40
2018-05-14T19:20:34.574Z,74108.81
2018-05-14T19:23:10.041Z,74132.08
2018-05-14T19:25:41.003Z,74145.23
2018-05-14T19:30:50.923Z,74190.77
2018-05-14T19:33:25.803Z,74222.13
2018-05-14T19:36:00.887Z,74143.21
2018-05-14T19:38:31.877Z,74120.95
2018-05-14T19:41:04.244Z,74088.58
2018-05-14T19:43:36.573Z,74122.98
2018-05-14T19:46:07.860Z,74077.45
2018-05-14T19:48:39.274Z,74086.55
2018-05-14T19:51:10.499Z,74123.98
2018-05-14T19:53:41.752Z,74109.83
2018-05-14T19:56:13.821Z,74145.23
2018-05-14T19:58:44.891Z,74141.19
2018-05-14T20:01:16.119Z,74179.64
2018-05-14T20:03:47.675Z,74140.17
2018-05-14T20:06:18.967Z,74237.31
2018-05-14T20:08:50.728Z,74280.81
2018-05-14T20:11:22.113Z,74279.80
2018-05-14T20:13:53.524Z,74312.19
2018-05-14T20:16:24.805Z,74328.38
2018-05-14T20:18:55.890Z,74395.16
2018-05-14T20:21:26.849Z,74386.05
2018-05-14T20:23:58.112Z,74401.23
2018-05-14T20:26:29.169Z,74420.45
2018-05-14T20:29:00.541Z,74440.69
2018-05-14T20:31:32.015Z,74414.38
2018-05-14T20:34:03.061Z,74440.69
2018-05-14T20:36:34.449Z,74440.69
2018-05-14T20:39:06.959Z,74389.08
2018-05-14T20:41:38.221Z,74431.58
2018-05-14T20:44:09.360Z,74420.45
2018-05-14T20:46:40.682Z,74378.97
2018-05-14T20:49:11.703Z,74368.84
2018-05-14T20:51:43.383Z,74393.13
2018-05-14T20:54:14.804Z,74327.36
2018-05-14T20:56:46.065Z,74441.70
2018-05-14T20:59:17.809Z,74456.88
2018-05-14T21:01:48.944Z,74402.23
2018-05-14T21:04:20.260Z,74428.55
2018-05-14T21:06:51.291Z,74463.97
2018-05-14T21:09:22.605Z,74503.42
2018-05-14T21:11:54.000Z,74447.77
2018-05-14T21:14:25.798Z,74499.38
2018-05-14T21:16:58.162Z,74524.67
2018-05-14T21:19:29.188Z,74443.73
2018-05-14T21:22:00.701Z,74444.73
2018-05-14T21:24:32.230Z,74487.23
2018-05-14T21:27:03.301Z,74517.59
2018-05-14T21:29:34.348Z,74482.17
2018-05-14T21:32:06.292Z,74480.16
2018-05-14T21:34:37.252Z,74500.39
2018-05-14T21:37:08.559Z,74516.58
2018-05-14T21:39:39.543Z,74525.69
2018-05-14T21:42:10.588Z,74559.08
2018-05-14T21:44:42.343Z,74558.07
2018-05-14T21:47:13.954Z,74565.16
2018-05-14T21:49:45.516Z,74586.41
2018-05-14T21:52:18.973Z,74574.27
2018-05-14T21:54:50.023Z,74554.02
2018-05-14T21:57:21.296Z,74561.11
2018-05-14T21:59:52.496Z,74570.21
2018-05-14T22:02:24.399Z,74571.22
2018-05-14T22:04:56.508Z,74556.05
2018-05-14T22:07:28.236Z,74574.27
2018-05-14T22:09:59.267Z,74571.22
2018-05-14T22:12:31.356Z,74602.59
2018-05-14T22:15:03.337Z,74607.66
2018-05-14T22:17:35.688Z,74627.89
2018-05-14T22:20:09.220Z,74628.91
2018-05-14T22:22:42.301Z,74589.44
2018-05-14T22:25:15.709Z,74631.94
2018-05-14T22:27:48.349Z,74644.09
2018-05-14T22:30:21.413Z,74623.84
2018-05-14T22:32:53.941Z,74618.78
2018-05-14T22:35:26.452Z,74655.22
2018-05-14T22:38:00.269Z,74626.88
2018-05-14T22:40:33.221Z,74625.88
2018-05-14T22:43:06.786Z,74668.38
2018-05-14T22:45:39.687Z,74641.05
2018-05-14T22:48:12.504Z,74631.94
2018-05-14T22:50:45.474Z,74656.23
2018-05-14T22:53:17.951Z,74681.53
2018-05-14T22:55:50.973Z,74678.48
2018-05-14T22:58:22.609Z,74698.73
2018-05-14T23:00:54.327Z,74702.78
2018-05-14T23:03:26.124Z,74730.10
2018-05-14T23:05:58.242Z,74735.16
2018-05-14T23:08:30.134Z,74733.14
2018-05-14T23:11:02.582Z,74671.41
2018-05-14T23:13:35.374Z,74676.47
2018-05-14T23:16:07.596Z,74683.55
2018-05-14T23:18:39.837Z,74694.68
2018-05-14T23:21:13.167Z,74649.14
2018-05-14T23:23:44.423Z,74645.09
2018-05-14T23:26:15.883Z,74707.84
2018-05-14T23:28:47.957Z,74718.97
2018-05-14T23:31:20.274Z,74717.95
2018-05-14T23:33:52.114Z,74691.64
2018-05-14T23:36:23.628Z,74717.95
2018-05-14T23:38:56.126Z,74704.80
2018-05-14T23:41:27.950Z,74685.58
2018-05-14T23:43:59.536Z,74634.98
2018-05-14T23:46:32.100Z,74620.81
2018-05-14T23:49:05.330Z,74638.02
2018-05-14T23:51:36.716Z,74627.89
2018-05-14T23:54:08.504Z,74650.16
2018-05-14T23:56:40.555Z,74609.67
2018-05-14T23:59:11.964Z,74649.14
